Texico, NM

6:53 AM MST on December 03, 2016 (GMT -0700)
Clovis Municipal

Weather History for KCVN - November, 2012

Change the Weather History Date:

Sunday, November 25, 2012

  Actual Average Record
Temperature  
Mean Temperature 53 °F -  
Max Temperature 71 °F 58 °F 79 °F (1910)
Min Temperature 35 °F 30 °F 10 °F (1993)
Degree Days  
Heating Degree Days 12    
Growing Degree Days 3 (Base 50)    
Moisture  
Dew Point 16 °F    
Average Humidity 25    
Maximum Humidity 42    
Minimum Humidity 12    
Precipitation  
Precipitation 0.00 in - - ()
Sea Level Pressure  
Sea Level Pressure 29.93 in    
Wind  
Wind Speed 12 mph (West)    
Max Wind Speed 17 mph    
Max Gust Speed -    
Visibility 10 miles    
Events      
Averages and records for this station are not official NWS values.
T = Trace of Precipitation, MM = Missing Value Source: NWS Daily Summary

Daily Weather History Graph

Daily Weather History Graph

Search for Another Location

Airport or City:

Trip Planner

Search our weather history database for the weather conditions in past years. The results will help you decide how hot, cold, wet, or windy it might be!

Date:

Astronomy

Nov. 25, 2012 Rise Set
Actual Time 6:35 AM MST 4:43 PM MST
Civil Twilight 6:08 AM MST 5:10 PM MST
Nautical Twilight 5:37 AM MST 5:41 PM MST
Astronomical Twilight 5:07 AM MST 6:11 PM MST
Moon 2:57 PM MST (11/25) 3:56 AM MST (11/25)
Length of Visible Light 11h 02m
Length of Day
10h 07m
Waxing Gibbous, 93% of the Moon is Illuminated
Nov 25
Waxing Gibbous
Nov 28
Full
Dec 6
Last Quarter
Dec 13
New
Dec 19
First Quarter

Hourly Weather History & Observations

Time (MST) Temp. Windchill Dew Point Humidity Pressure Visibility Wind Dir Wind Speed Gust Speed Precip Events Conditions
12:15 AM 46.4 °F 40.1 °F 19.4 °F 34% 29.96 in 10.0 mi West 15.0 mph - N/A   Clear
12:35 AM 44.6 °F 37.8 °F 19.4 °F 37% 29.96 in 10.0 mi West 15.0 mph - N/A   Clear
12:55 AM 44.6 °F 38.4 °F 19.4 °F 37% 29.95 in 10.0 mi West 12.7 mph - N/A   Clear
1:15 AM 44.6 °F 37.8 °F 19.4 °F 37% 29.96 in 10.0 mi West 15.0 mph - N/A   Clear
1:35 AM 42.8 °F 36.2 °F 19.4 °F 39% 29.96 in 10.0 mi West 12.7 mph - N/A   Clear
1:55 AM 41.0 °F 33.5 °F 17.6 °F 39% 29.95 in 10.0 mi West 13.8 mph - N/A   Clear
2:15 AM 42.8 °F 35.8 °F 19.4 °F 39% 29.95 in 10.0 mi West 13.8 mph - N/A   Clear
2:35 AM 44.6 °F 37.8 °F 17.6 °F 34% 29.95 in 10.0 mi West 15.0 mph - N/A   Clear
2:55 AM 42.8 °F 35.8 °F 17.6 °F 36% 29.95 in 10.0 mi West 13.8 mph - N/A   Clear
3:15 AM 41.0 °F 33.5 °F 17.6 °F 39% 29.95 in 10.0 mi West 13.8 mph - N/A   Clear
3:35 AM 41.0 °F 33.1 °F 17.6 °F 39% 29.94 in 10.0 mi West 15.0 mph - N/A   Clear
3:55 AM 41.0 °F 33.1 °F 15.8 °F 36% 29.94 in 10.0 mi West 15.0 mph - N/A   Clear
4:15 AM 39.2 °F 30.5 °F 15.8 °F 39% 29.94 in 10.0 mi West 16.1 mph - N/A   Clear
4:35 AM 39.2 °F 31.6 °F 15.8 °F 39% 29.94 in 10.0 mi West 12.7 mph - N/A   Clear
4:55 AM 37.4 °F 29.8 °F 15.8 °F 41% 29.94 in 10.0 mi West 11.5 mph - N/A   Clear
5:15 AM 37.4 °F 28.9 °F 15.8 °F 41% 29.95 in 10.0 mi West 13.8 mph - N/A   Clear
5:35 AM 39.2 °F 31.2 °F 15.8 °F 39% 29.95 in 10.0 mi West 13.8 mph - N/A   Clear
5:55 AM 39.2 °F 31.2 °F 15.8 °F 39% 29.95 in 10.0 mi West 13.8 mph - N/A   Clear
6:15 AM 37.4 °F 29.8 °F 14.0 °F 38% 29.96 in 10.0 mi WNW 11.5 mph - N/A   Clear
6:35 AM 37.4 °F 29.8 °F 14.0 °F 38% 29.96 in 10.0 mi WNW 11.5 mph - N/A   Clear
6:55 AM 35.6 °F 27.5 °F 12.2 °F 38% 29.96 in 10.0 mi West 11.5 mph - N/A   Clear
7:15 AM 37.4 °F 30.8 °F 15.8 °F 41% 29.97 in 10.0 mi West 9.2 mph - N/A   Clear
7:35 AM 39.2 °F 33.0 °F 17.6 °F 42% 29.97 in 10.0 mi West 9.2 mph - N/A   Clear
7:55 AM 42.8 °F 37.5 °F 17.6 °F 36% 29.98 in 10.0 mi WNW 9.2 mph - N/A   Clear
8:15 AM 46.4 °F 42.4 °F 19.4 °F 34% 29.98 in 10.0 mi WNW 8.1 mph - N/A   Clear
8:35 AM 51.8 °F - 21.2 °F 30% 29.99 in 10.0 mi WNW 10.4 mph - N/A   Clear
8:55 AM 53.6 °F - 19.4 °F 26% 29.99 in 10.0 mi WNW 8.1 mph - N/A   Clear
9:15 AM 57.2 °F - 17.6 °F 21% 29.99 in 10.0 mi NNW 8.1 mph - N/A   Clear
9:35 AM 57.2 °F - 17.6 °F 21% 29.99 in 10.0 mi NNW 8.1 mph - N/A   Clear
9:55 AM 57.2 °F - 17.6 °F 21% 29.99 in 10.0 mi North 9.2 mph - N/A   Clear
10:15 AM 59.0 °F - 17.6 °F 20% 29.98 in 10.0 mi NNW 8.1 mph - N/A   Clear
10:35 AM 60.8 °F - 17.6 °F 19% 29.98 in 10.0 mi NNW 4.6 mph - N/A   Clear
10:55 AM 60.8 °F - 17.6 °F 19% 29.97 in 10.0 mi West 4.6 mph - N/A   Clear
11:15 AM 62.6 °F - 17.6 °F 18% 29.96 in 10.0 mi NW 4.6 mph - N/A   Clear
11:35 AM 64.4 °F - 17.6 °F 16% 29.95 in 10.0 mi WNW 8.1 mph - N/A   Clear
11:55 AM 64.4 °F - 17.6 °F 16% 29.94 in 10.0 mi NNW 5.8 mph - N/A   Clear
12:15 PM 66.2 °F - 17.6 °F 15% 29.93 in 10.0 mi WSW 6.9 mph - N/A   Clear
12:35 PM 68.0 °F - 17.6 °F 15% 29.92 in 10.0 mi West 9.2 mph - N/A   Clear
12:55 PM 68.0 °F - 17.6 °F 15% 29.91 in 10.0 mi West 9.2 mph - N/A   Clear
1:15 PM 69.8 °F - 17.6 °F 14% 29.90 in 10.0 mi West 4.6 mph - N/A   Clear
1:35 PM 69.8 °F - 17.6 °F 14% 29.90 in 10.0 mi West 8.1 mph - N/A   Clear
1:55 PM 69.8 °F - 17.6 °F 14% 29.89 in 10.0 mi West 9.2 mph - N/A   Clear
2:15 PM 69.8 °F - 15.8 °F 13% 29.89 in 10.0 mi West 6.9 mph - N/A   Clear
2:35 PM 71.6 °F - 15.8 °F 12% 29.89 in 10.0 mi WSW 9.2 mph - N/A   Clear
2:55 PM 69.8 °F - 15.8 °F 13% 29.88 in 10.0 mi WSW 11.5 mph - N/A   Clear
3:15 PM 69.8 °F - 14.0 °F 12% 29.89 in 10.0 mi WSW 9.2 mph - N/A   Clear
3:35 PM 69.8 °F - 14.0 °F 12% 29.88 in 10.0 mi WSW 10.4 mph - N/A   Clear
3:55 PM 68.0 °F - 12.2 °F 12% 29.88 in 10.0 mi SW 8.1 mph - N/A   Clear
4:15 PM 64.4 °F - 12.2 °F 13% 29.88 in 10.0 mi SSW 6.9 mph - N/A   Clear
4:35 PM 60.8 °F - 15.8 °F 17% 29.88 in 10.0 mi SSW 5.8 mph - N/A   Clear
4:55 PM 57.2 °F - 15.8 °F 20% 29.88 in 10.0 mi SSW 5.8 mph - N/A   Clear
5:15 PM 53.6 °F - 15.8 °F 22% 29.88 in 10.0 mi South 6.9 mph - N/A   Clear
5:35 PM 53.6 °F - 15.8 °F 22% 29.88 in 10.0 mi South 5.8 mph - N/A   Clear
5:55 PM 53.6 °F - 14.0 °F 21% 29.88 in 10.0 mi Calm Calm - N/A   Clear
6:15 PM 51.8 °F - 12.2 °F 21% 29.89 in 10.0 mi West 6.9 mph - N/A   Clear
6:35 PM 53.6 °F - 10.4 °F 18% 29.89 in 10.0 mi West 11.5 mph - N/A   Clear
6:55 PM 57.2 °F - 14.0 °F 18% 29.89 in 10.0 mi West 15.0 mph - N/A   Clear
7:15 PM 59.0 °F - 14.0 °F 17% 29.89 in 10.0 mi West 17.3 mph - N/A   Clear
7:35 PM 59.0 °F - 12.2 °F 16% 29.89 in 10.0 mi West 16.1 mph - N/A   Clear
7:55 PM 57.2 °F - 12.2 °F 17% 29.89 in 10.0 mi West 13.8 mph - N/A   Clear
8:15 PM 55.4 °F - 10.4 °F 17% 29.90 in 10.0 mi West 9.2 mph - N/A   Clear
8:35 PM 50.0 °F - 10.4 °F 20% 29.90 in 10.0 mi WSW 11.5 mph - N/A   Clear
8:55 PM 46.4 °F 41.1 °F 10.4 °F 23% 29.90 in 10.0 mi WSW 11.5 mph - N/A   Clear
9:15 PM 46.4 °F 40.4 °F 10.4 °F 23% 29.90 in 10.0 mi WSW 13.8 mph - N/A   Clear
9:35 PM 46.4 °F 40.1 °F 12.2 °F 25% 29.90 in 10.0 mi WSW 15.0 mph - N/A   Clear
9:55 PM 50.0 °F - 12.2 °F 22% 29.90 in 10.0 mi West 13.8 mph - N/A   Clear
10:15 PM 53.6 °F - 15.8 °F 22% 29.90 in 10.0 mi West 15.0 mph - N/A   Clear
10:35 PM 53.6 °F - 15.8 °F 22% 29.91 in 10.0 mi West 16.1 mph - N/A   Clear
10:55 PM 53.6 °F - 15.8 °F 22% 29.91 in 10.0 mi West 17.3 mph - N/A   Clear
11:15 PM 51.8 °F - 15.8 °F 24% 29.91 in 10.0 mi West 17.3 mph - N/A   Clear
11:35 PM 51.8 °F - 15.8 °F 24% 29.92 in 10.0 mi WNW 13.8 mph - N/A   Clear
11:55 PM 50.0 °F - 17.6 °F 28% 29.92 in 10.0 mi WNW 10.4 mph - N/A   Clear